createdAt,value
2022-09-03T00:00:02.756Z,45.50
2022-09-03T00:02:40.096Z,47.10
2022-09-03T00:05:10.539Z,45.50
2022-09-03T00:07:53.066Z,45.30
2022-09-03T00:10:39.365Z,45.50
2022-09-03T00:13:06.128Z,45.60
2022-09-03T00:15:33.533Z,46.90
2022-09-03T00:18:07.417Z,47.10
2022-09-03T00:20:37.633Z,45.70
2022-09-03T00:23:05.946Z,45.40
2022-09-03T00:25:38.766Z,47.10
2022-09-03T00:28:06.874Z,45.50
2022-09-03T00:30:33.783Z,47.10
2022-09-03T00:33:11.369Z,46.90
2022-09-03T00:35:41.500Z,45.50
2022-09-03T00:38:08.412Z,47.20
2022-09-03T00:40:35.178Z,46.70
2022-09-03T00:43:12.206Z,46.60
2022-09-03T00:45:51.023Z,45.40
2022-09-03T00:48:27.769Z,45.40
2022-09-03T00:51:10.714Z,45.60
2022-09-03T00:53:40.953Z,45.40
2022-09-03T00:56:18.447Z,47.20
2022-09-03T00:58:48.267Z,45.40
2022-09-03T01:01:16.851Z,45.60
2022-09-03T01:03:51.279Z,47.30
2022-09-03T01:06:20.324Z,45.40
2022-09-03T01:09:05.587Z,47.40
2022-09-03T01:11:32.353Z,45.60
2022-09-03T01:14:02.646Z,46.90
2022-09-03T01:16:35.783Z,45.70
2022-09-03T01:19:11.958Z,45.60
2022-09-03T01:21:58.775Z,45.50
2022-09-03T01:24:31.760Z,45.70
2022-09-03T01:27:17.286Z,45.60
2022-09-03T01:29:44.055Z,45.50
2022-09-03T01:32:15.639Z,46.80
2022-09-03T01:34:51.459Z,47.40
2022-09-03T01:37:21.342Z,45.70
2022-09-03T01:39:50.919Z,45.50
2022-09-03T01:42:29.615Z,45.70
2022-09-03T01:45:09.693Z,45.70
2022-09-03T01:47:50.240Z,45.80
2022-09-03T01:50:29.102Z,45.50
2022-09-03T01:53:16.256Z,45.70
2022-09-03T01:56:01.777Z,47.20
2022-09-03T01:58:31.438Z,45.60
2022-09-03T02:01:00.601Z,47.50
2022-09-03T02:03:33.553Z,47.30
2022-09-03T02:06:00.504Z,47.30
2022-09-03T02:08:27.538Z,47.30
2022-09-03T02:10:54.594Z,47.10
2022-09-03T02:13:25.887Z,47.60
2022-09-03T02:15:53.483Z,45.70
2022-09-03T02:18:21.888Z,47.50
2022-09-03T02:20:48.754Z,47.50
2022-09-03T02:23:15.660Z,47.20
2022-09-03T02:25:43.842Z,47.00
2022-09-03T02:28:27.402Z,47.40
2022-09-03T02:30:54.588Z,47.00
2022-09-03T02:33:21.462Z,47.20
2022-09-03T02:35:48.893Z,47.30
2022-09-03T02:38:19.562Z,47.10
2022-09-03T02:40:46.397Z,45.80
2022-09-03T02:43:17.783Z,47.10
2022-09-03T02:45:47.987Z,45.70
2022-09-03T02:48:16.051Z,45.70
2022-09-03T02:50:42.895Z,47.30
2022-09-03T02:53:09.672Z,47.10
2022-09-03T02:55:36.494Z,47.30
2022-09-03T02:58:04.816Z,47.30
2022-09-03T03:00:31.629Z,47.50
2022-09-03T03:02:58.408Z,47.10
2022-09-03T03:05:26.583Z,47.30
2022-09-03T03:07:53.320Z,47.30
2022-09-03T03:10:20.063Z,47.30
2022-09-03T03:12:46.801Z,47.30
2022-09-03T03:15:13.543Z,47.10
2022-09-03T03:17:40.285Z,47.20
2022-09-03T03:20:07.315Z,47.20
2022-09-03T03:22:34.090Z,46.60
2022-09-03T03:25:01.413Z,47.00
2022-09-03T03:27:28.179Z,47.30
2022-09-03T03:29:54.921Z,47.10
2022-09-03T03:32:21.742Z,47.10
2022-09-03T03:34:48.479Z,47.30
2022-09-03T03:37:15.316Z,47.10
2022-09-03T03:39:42.123Z,47.00
2022-09-03T03:42:09.073Z,47.20
2022-09-03T03:44:35.836Z,47.30
2022-09-03T03:47:02.691Z,47.30
2022-09-03T03:49:29.453Z,47.10
2022-09-03T03:51:56.233Z,47.30
2022-09-03T03:54:23.056Z,47.00
2022-09-03T03:56:55.317Z,47.30
2022-09-03T03:59:22.773Z,47.10
2022-09-03T04:01:50.766Z,47.30
2022-09-03T04:04:17.609Z,47.40
2022-09-03T04:06:44.442Z,47.30
2022-09-03T04:09:11.179Z,47.60
2022-09-03T04:11:37.907Z,47.60
2022-09-03T04:14:04.703Z,47.40
2022-09-03T04:16:32.946Z,47.10
2022-09-03T04:18:59.987Z,47.40
2022-09-03T04:21:28.494Z,46.60
2022-09-03T04:23:55.643Z,47.70
2022-09-03T04:26:23.219Z,47.10
2022-09-03T04:28:49.990Z,47.70
2022-09-03T04:31:17.598Z,47.20
2022-09-03T04:33:45.013Z,47.50
2022-09-03T04:36:12.659Z,47.40
2022-09-03T04:38:40.088Z,47.80
2022-09-03T04:41:07.583Z,47.60
2022-09-03T04:43:34.388Z,47.60
2022-09-03T04:46:01.726Z,47.20
2022-09-03T04:48:28.863Z,47.60
2022-09-03T04:50:55.892Z,47.70
2022-09-03T04:53:23.061Z,47.40
2022-09-03T04:55:49.862Z,47.20
2022-09-03T04:58:16.681Z,47.00
2022-09-03T05:00:43.525Z,47.00
2022-09-03T05:03:10.346Z,45.60
2022-09-03T05:05:37.087Z,45.10
2022-09-03T05:08:04.198Z,45.10
2022-09-03T05:10:31.033Z,45.00
2022-09-03T05:12:58.546Z,45.00
2022-09-03T05:15:25.315Z,45.10
2022-09-03T05:17:55.814Z,44.80
2022-09-03T05:20:22.911Z,44.90
2022-09-03T05:22:49.717Z,44.90
2022-09-03T05:25:16.507Z,44.60
2022-09-03T05:27:43.318Z,44.30
2022-09-03T05:30:10.391Z,43.80
2022-09-03T05:32:37.273Z,43.70
2022-09-03T05:35:04.381Z,44.00
2022-09-03T05:37:31.142Z,43.30
2022-09-03T05:39:57.942Z,43.30
2022-09-03T05:42:24.707Z,43.40
2022-09-03T05:44:51.500Z,43.40
2022-09-03T05:47:18.677Z,43.50
2022-09-03T05:49:45.507Z,43.70
2022-09-03T05:52:12.281Z,43.70
2022-09-03T05:54:39.493Z,44.20
2022-09-03T05:57:06.274Z,44.60
2022-09-03T05:59:33.026Z,44.60
2022-09-03T06:02:00.462Z,44.80
2022-09-03T06:04:27.487Z,45.00
2022-09-03T06:06:54.283Z,45.20
2022-09-03T06:09:21.304Z,45.80
2022-09-03T06:11:50.396Z,45.70
2022-09-03T06:14:18.540Z,45.60
2022-09-03T06:16:46.280Z,46.40
2022-09-03T06:19:14.328Z,46.60
2022-09-03T06:21:44.343Z,46.20
2022-09-03T06:24:12.236Z,45.10
2022-09-03T06:26:39.314Z,46.90
2022-09-03T06:29:06.385Z,46.70
2022-09-03T06:31:33.177Z,46.40
2022-09-03T06:34:04.025Z,45.90
2022-09-03T06:36:31.131Z,45.70
2022-09-03T06:38:58.480Z,45.80
2022-09-03T06:41:29.389Z,46.20
2022-09-03T06:44:04.062Z,44.50
2022-09-03T06:46:31.632Z,44.40
2022-09-03T06:48:58.388Z,46.20
2022-09-03T06:51:26.287Z,45.60
2022-09-03T06:53:54.578Z,45.80
2022-09-03T06:56:26.403Z,45.80
2022-09-03T06:58:53.901Z,45.80
2022-09-03T07:01:21.774Z,45.50
2022-09-03T07:03:49.075Z,45.80
2022-09-03T07:06:16.675Z,45.70
2022-09-03T07:08:43.723Z,45.60
2022-09-03T07:11:11.464Z,45.30
2022-09-03T07:13:41.942Z,45.30
2022-09-03T07:16:09.828Z,43.70
2022-09-03T07:18:36.703Z,45.70
2022-09-03T07:21:07.341Z,45.00
2022-09-03T07:23:34.435Z,43.70
2022-09-03T07:26:02.009Z,45.20
2022-09-03T07:28:28.931Z,45.00
2022-09-03T07:30:56.584Z,45.70
2022-09-03T07:33:23.340Z,45.10
2022-09-03T07:35:50.175Z,45.00
2022-09-03T07:38:17.620Z,44.60
2022-09-03T07:40:44.354Z,45.10
2022-09-03T07:43:11.095Z,44.70
2022-09-03T07:45:39.182Z,44.40
2022-09-03T07:48:05.951Z,44.60
2022-09-03T07:50:39.178Z,44.50
2022-09-03T07:53:06.009Z,44.90
2022-09-03T07:55:32.858Z,44.70
2022-09-03T07:57:59.630Z,44.80
2022-09-03T08:00:26.730Z,44.30
2022-09-03T08:02:56.637Z,44.70
2022-09-03T08:05:23.452Z,44.90
2022-09-03T08:07:51.006Z,44.20
2022-09-03T08:10:17.820Z,44.50
2022-09-03T08:12:44.580Z,44.60
2022-09-03T08:15:11.429Z,44.40
2022-09-03T08:17:38.188Z,44.40
2022-09-03T08:20:05.398Z,44.40
2022-09-03T08:22:32.418Z,44.00
2022-09-03T08:25:00.230Z,44.10
2022-09-03T08:27:27.741Z,44.20
2022-09-03T08:29:54.845Z,44.20
2022-09-03T08:32:22.946Z,44.10
2022-09-03T08:34:50.808Z,43.90
2022-09-03T08:37:17.959Z,43.80
2022-09-03T08:39:45.084Z,43.90
2022-09-03T08:42:27.183Z,43.70
2022-09-03T08:44:58.696Z,42.10
2022-09-03T08:47:28.487Z,41.90
2022-09-03T08:49:58.092Z,42.10
2022-09-03T08:52:32.101Z,41.80
2022-09-03T08:55:17.312Z,42.00
2022-09-03T08:57:46.169Z,41.80
2022-09-03T09:00:13.064Z,43.80
2022-09-03T09:02:39.989Z,43.00
2022-09-03T09:05:14.414Z,43.50
2022-09-03T09:07:47.316Z,42.60
2022-09-03T09:10:20.341Z,42.50
2022-09-03T09:13:06.009Z,42.30
2022-09-03T09:15:32.858Z,42.20
2022-09-03T09:18:02.808Z,43.40
2022-09-03T09:20:59.061Z,44.00
2022-09-03T09:23:36.145Z,42.20
2022-09-03T09:26:05.546Z,42.20
2022-09-03T09:28:35.821Z,43.80
2022-09-03T09:31:03.190Z,42.00
2022-09-03T09:33:30.864Z,44.40
2022-09-03T09:35:59.764Z,44.20
2022-09-03T09:38:33.524Z,44.60
2022-09-03T09:41:10.375Z,42.40
2022-09-03T09:43:37.967Z,42.30
2022-09-03T09:46:23.413Z,43.70
2022-09-03T09:48:52.139Z,42.90
2022-09-03T09:51:22.905Z,44.60
2022-09-03T09:54:00.334Z,42.60
2022-09-03T09:56:27.136Z,44.60
2022-09-03T09:59:06.989Z,44.70
2022-09-03T10:01:34.052Z,43.50
2022-09-03T10:04:01.639Z,45.30
2022-09-03T10:06:58.573Z,45.30
2022-09-03T10:09:31.326Z,44.60
2022-09-03T10:12:07.699Z,43.90
2022-09-03T10:14:40.456Z,43.50
2022-09-03T10:17:12.520Z,43.10
2022-09-03T10:20:17.091Z,44.00
2022-09-03T10:22:48.364Z,42.40
2022-09-03T10:25:25.369Z,44.20
2022-09-03T10:27:54.010Z,44.00
2022-09-03T10:30:20.879Z,44.20
2022-09-03T10:33:09.157Z,43.40
2022-09-03T10:35:38.062Z,42.30
2022-09-03T10:38:15.381Z,43.90
2022-09-03T10:40:50.582Z,42.10
2022-09-03T10:43:17.449Z,42.70
2022-09-03T10:45:44.193Z,44.10
2022-09-03T10:48:10.940Z,44.00
2022-09-03T10:50:44.940Z,44.00
2022-09-03T10:53:12.575Z,42.70
2022-09-03T10:55:42.414Z,44.20
2022-09-03T10:58:14.537Z,42.20
2022-09-03T11:00:41.654Z,43.70
2022-09-03T11:03:08.452Z,43.70
2022-09-03T11:05:38.638Z,43.10
2022-09-03T11:08:23.975Z,41.80
2022-09-03T11:10:52.821Z,42.10
2022-09-03T11:13:36.465Z,43.90
2022-09-03T11:16:09.437Z,42.30
2022-09-03T11:18:44.510Z,42.10
2022-09-03T11:21:12.566Z,42.90
2022-09-03T11:23:44.162Z,45.50
2022-09-03T11:26:12.900Z,45.80
2022-09-03T11:28:42.188Z,45.90
2022-09-03T11:31:25.303Z,46.20
2022-09-03T11:33:56.977Z,44.60
2022-09-03T11:36:31.221Z,44.30
2022-09-03T11:38:58.108Z,44.10
2022-09-03T11:41:27.132Z,45.90
2022-09-03T11:43:54.538Z,46.30
2022-09-03T11:46:21.828Z,46.40
2022-09-03T11:48:52.401Z,45.60
2022-09-03T11:51:19.134Z,44.00
2022-09-03T11:53:55.732Z,44.80
2022-09-03T11:56:23.054Z,43.00
2022-09-03T11:59:19.547Z,44.60
2022-09-03T12:02:05.690Z,42.90
2022-09-03T12:04:35.252Z,42.90
2022-09-03T12:07:11.551Z,45.00
2022-09-03T12:09:47.473Z,42.90
2022-09-03T12:12:32.687Z,42.80
2022-09-03T12:14:59.473Z,42.90
2022-09-03T12:17:32.349Z,44.00
2022-09-03T12:20:01.356Z,42.70
2022-09-03T12:22:38.758Z,44.10
2022-09-03T12:25:12.758Z,44.30
2022-09-03T12:27:39.511Z,42.50
2022-09-03T12:30:13.694Z,44.00
2022-09-03T12:32:41.256Z,43.60
2022-09-03T12:35:12.004Z,44.10
2022-09-03T12:40:27.145Z,44.00
2022-09-03T12:42:54.243Z,44.60
2022-09-03T12:45:21.963Z,44.10
2022-09-03T12:47:48.858Z,44.30
2022-09-03T12:50:22.615Z,43.90
2022-09-03T12:52:49.396Z,42.00
2022-09-03T12:55:28.210Z,43.60
2022-09-03T12:58:03.923Z,42.70
2022-09-03T13:00:31.087Z,42.10
2022-09-03T13:03:03.092Z,43.50
2022-09-03T13:05:33.833Z,43.30
2022-09-03T13:08:04.101Z,43.40
2022-09-03T13:10:35.184Z,43.40
2022-09-03T13:13:02.813Z,42.20
2022-09-03T13:15:29.632Z,43.50
2022-09-03T13:18:14.963Z,43.50
2022-09-03T13:20:47.617Z,41.60
2022-09-03T13:23:29.517Z,41.70
2022-09-03T13:25:56.242Z,41.40
2022-09-03T13:28:29.885Z,42.80
2022-09-03T13:31:03.374Z,42.00
2022-09-03T13:33:35.073Z,43.80
2022-09-03T13:36:15.083Z,41.70
2022-09-03T13:38:44.650Z,41.40
2022-09-03T13:41:20.110Z,41.50
2022-09-03T13:44:07.878Z,41.40
2022-09-03T13:46:40.420Z,41.00
2022-09-03T13:49:28.554Z,41.20
2022-09-03T13:52:03.642Z,42.80
2022-09-03T13:54:48.986Z,40.90
2022-09-03T13:57:20.148Z,41.10
2022-09-03T13:59:47.741Z,41.10
2022-09-03T14:02:17.373Z,42.20
2022-09-03T14:05:03.015Z,40.80
2022-09-03T14:07:42.152Z,40.90
2022-09-03T14:10:11.825Z,40.70
2022-09-03T14:12:46.910Z,40.80
2022-09-03T14:15:26.124Z,40.80
2022-09-03T14:18:13.103Z,40.90
2022-09-03T14:20:41.801Z,42.40
2022-09-03T14:23:17.956Z,42.00
2022-09-03T14:25:56.941Z,40.50
2022-09-03T14:28:31.912Z,40.70
2022-09-03T14:31:13.297Z,40.50
2022-09-03T14:33:44.788Z,40.40
2022-09-03T14:36:14.648Z,41.90
2022-09-03T14:38:44.169Z,40.30
2022-09-03T14:41:13.784Z,40.40
2022-09-03T14:43:40.515Z,40.30
2022-09-03T14:46:13.433Z,41.40
2022-09-03T14:48:40.208Z,40.30
2022-09-03T14:51:06.986Z,41.80
2022-09-03T14:53:33.804Z,41.40
2022-09-03T14:56:06.810Z,41.40
2022-09-03T14:58:33.542Z,40.30
2022-09-03T15:01:11.540Z,41.70
2022-09-03T15:03:41.697Z,40.30
2022-09-03T15:06:31.340Z,40.20
2022-09-03T15:09:18.473Z,40.10
2022-09-03T15:11:47.935Z,41.90
2022-09-03T15:14:20.787Z,41.90
2022-09-03T15:17:00.677Z,40.30
2022-09-03T15:19:53.884Z,40.10
2022-09-03T15:22:20.632Z,39.80
2022-09-03T15:24:56.749Z,41.50
2022-09-03T15:27:40.427Z,40.00
2022-09-03T15:30:07.952Z,40.20
2022-09-03T15:32:53.655Z,41.90
2022-09-03T15:35:20.435Z,40.20
2022-09-03T15:37:48.015Z,41.50
2022-09-03T15:40:24.140Z,42.70
2022-09-03T15:42:51.691Z,40.30
2022-09-03T15:45:21.448Z,42.00
2022-09-03T15:47:56.138Z,40.20
2022-09-03T15:50:30.400Z,40.10
2022-09-03T15:53:03.928Z,40.20
2022-09-03T15:55:40.471Z,40.00
2022-09-03T15:58:10.550Z,40.00
2022-09-03T16:00:42.076Z,40.10
2022-09-03T16:03:09.798Z,39.90
2022-09-03T16:05:55.413Z,41.40
2022-09-03T16:08:22.995Z,40.00
2022-09-03T16:11:22.253Z,41.40
2022-09-03T16:14:07.698Z,39.50
2022-09-03T16:16:52.491Z,39.60
2022-09-03T16:19:24.515Z,39.90
2022-09-03T16:22:07.757Z,39.70
2022-09-03T16:24:40.406Z,40.00
2022-09-03T16:27:26.346Z,39.70
2022-09-03T16:30:04.051Z,40.00
2022-09-03T16:32:33.804Z,41.40
2022-09-03T16:35:18.971Z,39.80
2022-09-03T16:37:45.972Z,39.70
2022-09-03T16:40:39.096Z,41.20
2022-09-03T16:43:23.799Z,39.70
2022-09-03T16:46:12.889Z,41.40
2022-09-03T16:48:39.688Z,39.60
2022-09-03T16:51:08.314Z,41.00
2022-09-03T16:54:03.713Z,41.40
2022-09-03T16:56:34.554Z,39.50
2022-09-03T16:59:03.834Z,41.40
2022-09-03T17:01:30.667Z,41.30
2022-09-03T17:04:05.995Z,40.80
2022-09-03T17:06:44.854Z,39.80
2022-09-03T17:09:30.282Z,39.50
2022-09-03T17:12:02.984Z,39.60
2022-09-03T17:14:48.474Z,40.20
2022-09-03T17:17:17.985Z,39.50
2022-09-03T17:19:56.800Z,39.40
2022-09-03T17:22:28.957Z,39.60
2022-09-03T17:25:05.504Z,41.10
2022-09-03T17:27:38.659Z,39.90
2022-09-03T17:30:05.530Z,39.30
2022-09-03T17:32:32.274Z,40.70
2022-09-03T17:35:08.122Z,40.90
2022-09-03T17:37:53.593Z,39.30
2022-09-03T17:40:23.144Z,39.40
2022-09-03T17:42:52.995Z,39.30
2022-09-03T17:45:22.859Z,41.00
2022-09-03T17:47:50.090Z,40.10
2022-09-03T17:50:16.873Z,41.20
2022-09-03T17:52:45.172Z,41.00
2022-09-03T17:55:13.481Z,41.30
2022-09-03T17:57:40.771Z,41.10
2022-09-03T18:00:11.728Z,41.10
2022-09-03T18:02:57.038Z,41.00
2022-09-03T18:05:27.973Z,39.40
2022-09-03T18:08:03.247Z,39.80
2022-09-03T18:10:45.310Z,39.50
2022-09-03T18:13:13.658Z,39.70
2022-09-03T18:15:43.581Z,41.10
2022-09-03T18:18:12.212Z,39.40
2022-09-03T18:21:23.231Z,41.10
2022-09-03T18:24:13.555Z,39.40
2022-09-03T18:27:00.901Z,39.30
2022-09-03T18:29:54.442Z,41.20
2022-09-03T18:32:39.769Z,39.30
2022-09-03T18:35:26.437Z,40.00
2022-09-03T18:38:11.855Z,40.60
2022-09-03T18:40:58.830Z,39.90
2022-09-03T18:43:50.254Z,41.00
2022-09-03T18:50:19.050Z,40.00
2022-09-03T18:53:14.998Z,39.30
2022-09-03T18:56:04.963Z,41.00
2022-09-03T18:58:53.138Z,41.30
2022-09-03T19:01:38.774Z,39.40
2022-09-03T19:04:45.542Z,39.60
2022-09-03T19:07:31.636Z,39.70
2022-09-03T19:10:19.910Z,41.30
2022-09-03T19:13:06.022Z,41.40
2022-09-03T19:16:00.853Z,39.80
2022-09-03T19:18:55.681Z,40.10
2022-09-03T19:21:57.715Z,40.20
2022-09-03T19:24:45.412Z,40.10
2022-09-03T19:27:55.270Z,42.10
2022-09-03T19:30:51.925Z,40.40
2022-09-03T19:33:44.612Z,40.30
2022-09-03T19:36:59.580Z,40.30
2022-09-03T19:40:00.192Z,40.60
2022-09-03T19:42:51.796Z,40.20
2022-09-03T19:45:41.264Z,40.20
2022-09-03T19:48:36.041Z,42.10
2022-09-03T19:51:34.686Z,40.40
2022-09-03T19:54:20.029Z,40.50
2022-09-03T19:57:05.447Z,41.40
2022-09-03T19:59:52.994Z,40.90
2022-09-03T20:02:38.473Z,42.30
2022-09-03T20:05:24.870Z,40.80
2022-09-03T20:08:10.819Z,42.10
2022-09-03T20:10:37.644Z,42.20
2022-09-03T20:13:04.455Z,42.00
2022-09-03T20:15:43.168Z,41.70
2022-09-03T20:18:16.334Z,40.50
2022-09-03T20:20:54.664Z,41.30
2022-09-03T20:23:25.599Z,40.50
2022-09-03T20:26:01.755Z,42.40
2022-09-03T20:28:45.571Z,40.60
2022-09-03T20:31:17.574Z,40.60
2022-09-03T20:33:44.378Z,42.30
2022-09-03T20:36:29.717Z,41.90
2022-09-03T20:39:16.777Z,40.80
2022-09-03T20:41:43.492Z,42.40
2022-09-03T20:44:19.403Z,42.30
2022-09-03T20:46:46.213Z,40.70
2022-09-03T20:49:20.155Z,42.20
2022-09-03T20:51:49.269Z,42.40
2022-09-03T20:54:22.401Z,42.80
2022-09-03T20:57:01.993Z,41.20
2022-09-03T20:59:38.114Z,41.70
2022-09-03T21:02:14.137Z,41.80
2022-09-03T21:04:43.797Z,42.10
2022-09-03T21:07:10.523Z,42.20
2022-09-03T21:09:40.437Z,43.50
2022-09-03T21:12:19.865Z,43.80
2022-09-03T21:14:48.669Z,42.30
2022-09-03T21:17:20.675Z,44.00
2022-09-03T21:20:02.390Z,42.20
2022-09-03T21:22:29.130Z,42.40
2022-09-03T21:24:59.476Z,43.80
2022-09-03T21:27:27.444Z,42.50
2022-09-03T21:30:20.627Z,44.40
2022-09-03T21:32:49.831Z,42.70
2022-09-03T21:35:16.583Z,44.40
2022-09-03T21:37:45.525Z,44.20
2022-09-03T21:40:12.384Z,44.60
2022-09-03T21:42:42.230Z,44.00
2022-09-03T21:45:11.971Z,44.70
2022-09-03T21:47:43.681Z,44.10
2022-09-03T21:50:14.510Z,43.10
2022-09-03T21:52:49.483Z,44.40
2022-09-03T21:55:20.665Z,43.40
2022-09-03T21:57:56.510Z,45.00
2022-09-03T22:00:32.531Z,43.30
2022-09-03T22:02:59.761Z,44.80
2022-09-03T22:05:28.900Z,45.10
2022-09-03T22:07:55.649Z,45.30
2022-09-03T22:10:25.786Z,45.00
2022-09-03T22:13:14.970Z,43.60
2022-09-03T22:15:43.017Z,43.90
2022-09-03T22:18:15.611Z,45.50
2022-09-03T22:20:45.943Z,45.90
2022-09-03T22:23:14.639Z,45.50
2022-09-03T22:25:47.608Z,45.80
2022-09-03T22:28:17.468Z,44.00
2022-09-03T22:30:51.074Z,44.20
2022-09-03T22:33:30.320Z,44.40
2022-09-03T22:36:09.124Z,44.40
2022-09-03T22:38:43.059Z,45.20
2022-09-03T22:41:16.096Z,44.90
2022-09-03T22:43:43.355Z,46.40
2022-09-03T22:46:11.906Z,46.40
2022-09-03T22:48:38.700Z,44.30
2022-09-03T22:51:05.470Z,43.90
2022-09-03T22:53:38.514Z,44.20
2022-09-03T22:56:11.921Z,42.60
2022-09-03T22:58:41.850Z,42.70
2022-09-03T23:01:16.984Z,44.10
2022-09-03T23:03:54.739Z,42.10
2022-09-03T23:06:34.037Z,42.00
2022-09-03T23:09:08.238Z,41.80
2022-09-03T23:11:42.231Z,41.20
2022-09-03T23:14:09.985Z,41.80
2022-09-03T23:16:41.202Z,43.40
2022-09-03T23:21:46.408Z,41.50
2022-09-03T23:24:14.983Z,42.90
2022-09-03T23:26:42.887Z,43.20
2022-09-03T23:29:16.043Z,43.10
2022-09-03T23:31:42.886Z,41.20
2022-09-03T23:34:10.144Z,42.70
2022-09-03T23:37:31.653Z,43.00
2022-09-03T23:39:34.118Z,41.20
2022-09-03T23:42:03.691Z,42.50
2022-09-03T23:44:48.952Z,41.30
2022-09-03T23:47:21.756Z,41.20
2022-09-03T23:50:01.597Z,41.30
2022-09-03T23:52:48.090Z,42.90
2022-09-03T23:55:33.772Z,41.30
2022-09-03T23:58:36.045Z,41.20
